Portada
METAR-TAF:

METAR-TAF

Aeroports :

Vladikavkaz, Rússia

latitud: 43-12-18N, longitud: 044-36-24E, altitud: 510 m

Observació

L'informe es va fer fa 32 minuts, a les 15:00 UTC
Vent 6 kt del Sud
Temperatura -1°C
Humitat 86%
Pressió 1018 hPa
Visibilitat 10 km o més

METAR: URMO 101500Z 17003MPS 9999 NSC M01/M03 Q1018 R09/010070 NOSIG RMK QFE720/0960

Hora: 18:32 (15:32 UTC)

Pronòstic

L'informe es va fer fa 1 hora i 32 minuts, a les 14:00 UTC
Pronòstic vàlid del 10 a les 15 UTC al 10 a les 24 UTC
Vent 6 kt del Est/Nord-Est amb ràfegues de 16 kt
Visibilitat 10 km o més
Núvols disperses a una alçada de 4000 ft

TAF: URMO 101400Z 1015/1024 06003G08MPS 9999 SCT040

Observacions i pronòstics meteorològics de més de 4000 aeroports (METAR i TAF).

Les estacions disponibles són els punts grocs i vermells al mapa.

Posi el ratolí al punt desitjat per veure el nom de l'estació.

Feu clic per veure les observacions i els pronòstics meteorològics.

Per canviar el mapa: feu clic els botons verds amb una creu de color negre per apropar; al botó verd amb un guió per allunyar la imatge; o en les fletxes verdes per a mapes adjacents.


METAR-TAF: